Terminal Aerodrome Forecast
Issued by NWS Albuquerque, NM

Home | Current Version | Previous Version | Text Only | Print | Product List | Glossary On
Versions: 1 2 3 4 5 6 7 8 9 10 11 12
000
FTUS45 KABQ 221900 RRA
TAFABQ
TAF
KABQ 221910Z 2219/2318 01008KT P6SM FEW200
     FM222000 28008KT P6SM BKN200
     FM230600 14005KT P6SM SCT120
     FM231000 21009KT P6SM BKN120=

USA.gov is the U.S. government's official web portal to all federal, state and local government web resources and services.